createdAt,value
2022-08-11T00:01:06.161Z,2.47
2022-08-11T00:03:43.119Z,2.20
2022-08-11T00:06:11.891Z,2.13
2022-08-11T00:08:38.744Z,2.30
2022-08-11T00:11:08.894Z,2.05
2022-08-11T00:13:44.476Z,1.70
2022-08-11T00:16:21.550Z,2.45
2022-08-11T00:18:51.142Z,2.20
2022-08-11T00:21:20.216Z,2.20
2022-08-11T00:24:08.367Z,2.33
2022-08-11T00:26:36.336Z,2.58
2022-08-11T00:29:12.258Z,2.45
2022-08-11T00:31:44.258Z,2.10
2022-08-11T00:34:12.135Z,2.55
2022-08-11T00:37:02.723Z,2.50
2022-08-11T00:39:34.082Z,2.85
2022-08-11T00:42:20.045Z,1.95
2022-08-11T00:45:07.119Z,2.15
2022-08-11T00:47:33.503Z,2.95
2022-08-11T00:50:16.852Z,2.60
2022-08-11T00:53:07.753Z,2.38
2022-08-11T00:55:57.086Z,2.50
2022-08-11T00:58:51.044Z,2.60
2022-08-11T01:01:21.302Z,2.80
2022-08-11T01:04:31.241Z,2.70
2022-08-11T01:07:03.494Z,3.35
2022-08-11T01:10:07.182Z,2.60
2022-08-11T01:12:56.289Z,2.25
2022-08-11T01:15:58.765Z,2.67
2022-08-11T01:18:44.396Z,2.75
2022-08-11T01:21:59.638Z,2.65
2022-08-11T01:24:50.353Z,2.70
2022-08-11T01:27:36.392Z,3.00
2022-08-11T01:30:10.259Z,2.67
2022-08-11T01:33:19.445Z,2.78
2022-08-11T01:36:23.186Z,2.78
2022-08-11T01:39:08.044Z,2.50
2022-08-11T01:42:12.035Z,2.67
2022-08-11T01:45:03.235Z,2.80
2022-08-11T01:47:37.961Z,2.58
2022-08-11T01:50:22.182Z,3.03
2022-08-11T01:53:03.560Z,2.75
2022-08-11T01:55:48.280Z,2.70
2022-08-11T01:58:43.196Z,3.08
2022-08-11T02:01:44.227Z,2.65
2022-08-11T02:04:31.129Z,2.60
2022-08-11T02:07:35.790Z,2.78
2022-08-11T02:10:13.925Z,2.85
2022-08-11T02:13:15.338Z,2.75
2022-08-11T02:15:54.180Z,2.47
2022-08-11T02:18:33.856Z,2.42
2022-08-11T02:21:11.673Z,2.60
2022-08-11T02:24:14.340Z,3.03
2022-08-11T02:26:55.765Z,2.90
2022-08-11T02:29:33.319Z,2.33
2022-08-11T02:32:28.652Z,2.60
2022-08-11T02:35:03.992Z,3.13
2022-08-11T02:37:33.122Z,2.97
2022-08-11T02:39:59.373Z,2.90
2022-08-11T02:42:52.814Z,2.60
2022-08-11T02:46:17.945Z,3.00
2022-08-11T02:48:58.387Z,2.83
2022-08-11T02:51:29.935Z,2.60
2022-08-11T02:54:10.144Z,2.90
2022-08-11T02:56:52.243Z,3.20
2022-08-11T02:59:46.948Z,3.08
2022-08-11T03:02:51.710Z,2.95
2022-08-11T03:05:33.502Z,2.65
2022-08-11T03:08:05.898Z,2.90
2022-08-11T03:10:56.753Z,2.97
2022-08-11T03:13:31.739Z,2.50
2022-08-11T03:16:21.368Z,2.72
2022-08-11T03:19:11.776Z,2.83
2022-08-11T03:22:01.909Z,2.72
2022-08-11T03:24:55.877Z,3.13
2022-08-11T03:27:34.112Z,3.58
2022-08-11T03:30:10.401Z,2.90
2022-08-11T03:32:53.862Z,2.97
2022-08-11T03:35:21.550Z,2.92
2022-08-11T03:38:00.136Z,3.13
2022-08-11T03:40:50.646Z,3.45
2022-08-11T03:43:35.023Z,3.13
2022-08-11T03:46:16.657Z,3.60
2022-08-11T03:48:56.690Z,2.83
2022-08-11T03:51:52.452Z,2.78
2022-08-11T03:54:34.133Z,2.83
2022-08-11T03:57:26.139Z,3.55
2022-08-11T04:00:04.020Z,3.38
2022-08-11T04:02:48.770Z,2.67
2022-08-11T04:06:01.703Z,3.33
2022-08-11T04:09:05.860Z,3.50
2022-08-11T04:12:04.088Z,3.35
2022-08-11T04:15:07.942Z,3.35
2022-08-11T04:18:06.550Z,3.58
2022-08-11T04:20:49.344Z,3.47
2022-08-11T04:24:33.278Z,3.63
2022-08-11T04:26:50.612Z,3.22
2022-08-11T04:30:03.961Z,3.88
2022-08-11T04:32:41.153Z,3.28
2022-08-11T04:35:32.777Z,3.70
2022-08-11T04:38:33.958Z,3.80
2022-08-11T04:41:34.346Z,3.20
2022-08-11T04:44:32.503Z,3.30
2022-08-11T04:47:07.872Z,3.42
2022-08-11T04:49:54.213Z,3.42
2022-08-11T04:52:48.175Z,3.33
2022-08-11T04:55:45.428Z,3.92
2022-08-11T04:58:31.322Z,3.83
2022-08-11T05:01:27.202Z,3.00
2022-08-11T05:04:02.303Z,3.63
2022-08-11T05:06:56.515Z,3.58
2022-08-11T05:09:44.983Z,3.50
2022-08-11T05:12:20.262Z,4.07
2022-08-11T05:14:50.849Z,3.30
2022-08-11T05:17:27.523Z,3.42
2022-08-11T05:19:54.018Z,3.33
2022-08-11T05:22:25.432Z,3.65
2022-08-11T05:25:09.030Z,3.75
2022-08-11T05:28:07.893Z,3.70
2022-08-11T05:30:36.877Z,3.42
2022-08-11T05:33:10.345Z,3.20
2022-08-11T05:38:26.547Z,3.50
2022-08-11T05:41:00.133Z,2.92
2022-08-11T05:43:26.894Z,3.55
2022-08-11T05:46:04.668Z,3.70
2022-08-11T05:48:36.283Z,3.80
2022-08-11T05:51:04.162Z,4.43
2022-08-11T05:53:46.183Z,4.50
2022-08-11T05:56:13.793Z,4.07
2022-08-11T05:58:43.242Z,4.30
2022-08-11T06:01:20.855Z,4.70
2022-08-11T06:03:58.049Z,4.07
2022-08-11T06:06:26.975Z,4.22
2022-08-11T06:08:58.179Z,4.40
2022-08-11T06:11:43.091Z,5.15
2022-08-11T06:14:12.005Z,5.20
2022-08-11T06:16:41.539Z,5.95
2022-08-11T06:19:09.025Z,4.00
2022-08-11T06:21:36.450Z,4.50
2022-08-11T06:24:12.333Z,5.10
2022-08-11T06:26:55.091Z,4.43
2022-08-11T06:29:37.784Z,5.03
2022-08-11T06:32:15.253Z,4.75
2022-08-11T06:34:59.895Z,5.07
2022-08-11T06:37:45.035Z,4.38
2022-08-11T06:40:31.016Z,4.43
2022-08-11T06:43:06.684Z,4.05
2022-08-11T06:45:51.287Z,4.38
2022-08-11T06:48:21.607Z,4.07
2022-08-11T06:50:53.084Z,4.22
2022-08-11T06:53:20.473Z,4.50
2022-08-11T06:55:58.252Z,5.30
2022-08-11T06:58:29.689Z,4.68
2022-08-11T07:00:58.723Z,3.78
2022-08-11T07:03:28.604Z,4.25
2022-08-11T07:06:15.492Z,4.10
2022-08-11T07:09:04.736Z,4.35
2022-08-11T07:11:53.048Z,3.15
2022-08-11T07:14:26.539Z,4.72
2022-08-11T07:16:54.007Z,3.90
2022-08-11T07:19:26.937Z,4.07
2022-08-11T07:22:02.929Z,4.05
2022-08-11T07:24:59.764Z,3.80
2022-08-11T07:27:37.684Z,3.53
2022-08-11T07:30:07.870Z,4.45
2022-08-11T07:32:50.953Z,4.00
2022-08-11T07:35:21.657Z,4.22
2022-08-11T07:40:37.110Z,4.38
2022-08-11T07:43:04.791Z,4.65
2022-08-11T07:45:31.926Z,4.63
2022-08-11T07:47:59.923Z,4.10
2022-08-11T07:50:26.785Z,3.75
2022-08-11T07:52:54.083Z,3.75
2022-08-11T07:55:22.118Z,4.22
2022-08-11T07:58:19.174Z,4.13
2022-08-11T08:00:53.237Z,3.55
2022-08-11T08:03:20.483Z,3.33
2022-08-11T08:05:48.049Z,3.70
2022-08-11T08:08:17.358Z,3.55
2022-08-11T08:10:44.231Z,3.45
2022-08-11T08:13:10.664Z,3.80
2022-08-11T08:15:37.668Z,3.47
2022-08-11T08:18:09.887Z,3.58
2022-08-11T08:20:55.166Z,3.25
2022-08-11T08:23:25.836Z,3.40
2022-08-11T08:25:52.443Z,4.15
2022-08-11T08:28:21.461Z,3.40
2022-08-11T08:30:50.186Z,3.92
2022-08-11T08:33:22.123Z,3.30
2022-08-11T08:35:54.369Z,3.30
2022-08-11T08:38:23.213Z,3.45
2022-08-11T08:40:53.984Z,3.58
2022-08-11T08:43:23.915Z,3.45
2022-08-11T08:45:55.598Z,3.45
2022-08-11T08:48:24.753Z,3.63
2022-08-11T08:50:57.689Z,3.78
2022-08-11T08:53:26.674Z,3.80
2022-08-11T08:55:54.144Z,3.72
2022-08-11T08:58:23.647Z,3.83
2022-08-11T09:00:53.191Z,3.40
2022-08-11T09:03:41.040Z,3.25
2022-08-11T09:06:07.435Z,3.60
2022-08-11T09:08:34.885Z,2.95
2022-08-11T09:11:03.848Z,3.50
2022-08-11T09:13:30.409Z,3.25
2022-08-11T09:15:56.785Z,3.00
2022-08-11T09:18:23.208Z,2.58
2022-08-11T09:20:49.714Z,2.90
2022-08-11T09:26:03.067Z,2.65
2022-08-11T09:28:30.263Z,2.40
2022-08-11T09:30:59.890Z,2.90
2022-08-11T09:33:28.119Z,2.58
2022-08-11T09:35:55.173Z,2.10
2022-08-11T09:38:26.032Z,2.05
2022-08-11T09:40:56.247Z,2.63
2022-08-11T09:43:24.844Z,3.28
2022-08-11T09:45:53.193Z,2.60
2022-08-11T09:48:21.897Z,2.40
2022-08-11T09:50:50.458Z,2.17
2022-08-11T09:53:35.270Z,2.50
2022-08-11T09:56:07.312Z,2.13
2022-08-11T09:58:42.698Z,2.63
2022-08-11T10:01:10.709Z,2.13
2022-08-11T10:03:41.192Z,2.65
2022-08-11T10:06:09.312Z,2.08
2022-08-11T10:08:39.085Z,2.60
2022-08-11T10:11:09.230Z,1.95
2022-08-11T10:13:44.110Z,2.35
2022-08-11T10:16:28.784Z,2.58
2022-08-11T10:18:56.051Z,2.25
2022-08-11T10:21:40.006Z,3.03
2022-08-11T10:24:07.706Z,2.97
2022-08-11T10:26:34.596Z,2.50
2022-08-11T10:29:12.955Z,2.58
2022-08-11T10:31:57.163Z,2.70
2022-08-11T10:34:24.440Z,2.33
2022-08-11T10:36:54.952Z,2.70
2022-08-11T10:39:22.257Z,2.25
2022-08-11T10:42:03.402Z,2.78
2022-08-11T10:44:50.395Z,2.10
2022-08-11T10:47:17.247Z,2.75
2022-08-11T10:49:43.940Z,2.55
2022-08-11T10:52:10.584Z,2.60
2022-08-11T10:54:40.674Z,2.58
2022-08-11T10:57:07.693Z,2.30
2022-08-11T10:59:34.232Z,2.72
2022-08-11T11:02:01.056Z,2.55
2022-08-11T11:04:39.520Z,2.30
2022-08-11T11:07:12.780Z,2.58
2022-08-11T11:09:56.681Z,2.60
2022-08-11T11:12:34.093Z,2.25
2022-08-11T11:15:03.428Z,3.30
2022-08-11T11:17:42.936Z,2.63
2022-08-11T11:20:34.618Z,2.28
2022-08-11T11:23:03.523Z,2.78
2022-08-11T11:25:55.452Z,2.20
2022-08-11T11:28:54.614Z,2.83
2022-08-11T11:31:42.956Z,2.60
2022-08-11T11:34:15.376Z,2.60
2022-08-11T11:36:54.845Z,2.45
2022-08-11T11:39:23.995Z,2.63
2022-08-11T11:41:53.760Z,2.67
2022-08-11T11:44:21.605Z,2.70
2022-08-11T11:46:49.142Z,2.25
2022-08-11T11:51:52.356Z,2.70
2022-08-11T11:54:25.092Z,2.35
2022-08-11T11:56:53.391Z,3.03
2022-08-11T11:59:26.169Z,2.60
2022-08-11T12:01:54.061Z,2.47
2022-08-11T12:04:21.904Z,2.25
2022-08-11T12:06:49.560Z,2.80
2022-08-11T12:09:16.693Z,2.67
2022-08-11T12:11:43.670Z,2.10
2022-08-11T12:14:11.191Z,2.38
2022-08-11T12:16:40.477Z,2.17
2022-08-11T12:19:17.280Z,2.33
2022-08-11T12:21:44.470Z,2.95
2022-08-11T12:24:17.950Z,2.67
2022-08-11T12:26:45.802Z,1.98
2022-08-11T12:29:32.817Z,2.28
2022-08-11T12:31:59.416Z,2.17
2022-08-11T12:34:27.328Z,2.17
2022-08-11T12:36:59.400Z,1.85
2022-08-11T12:40:16.910Z,2.33
2022-08-11T12:42:19.145Z,2.15
2022-08-11T12:44:46.320Z,2.47
2022-08-11T12:47:17.271Z,4.07
2022-08-11T12:49:50.948Z,2.22
2022-08-11T12:52:23.884Z,2.95
2022-08-11T12:57:42.457Z,1.92
2022-08-11T13:00:09.681Z,2.40
2022-08-11T13:02:39.996Z,2.25
2022-08-11T13:05:12.574Z,2.67
2022-08-11T13:07:50.481Z,2.35
2022-08-11T13:10:20.098Z,2.22
2022-08-11T13:12:46.606Z,2.22
2022-08-11T13:15:16.977Z,2.30
2022-08-11T13:17:44.530Z,2.45
2022-08-11T13:20:12.357Z,2.55
2022-08-11T13:22:43.802Z,2.35
2022-08-11T13:25:14.958Z,2.40
2022-08-11T13:27:43.593Z,2.47
2022-08-11T13:30:10.731Z,2.80
2022-08-11T13:32:39.859Z,3.13
2022-08-11T13:35:09.215Z,2.17
2022-08-11T13:38:18.625Z,2.25
2022-08-11T13:40:33.308Z,2.63
2022-08-11T13:43:14.292Z,2.25
2022-08-11T13:45:42.201Z,2.55
2022-08-11T13:48:10.099Z,2.60
2022-08-11T13:50:37.469Z,2.10
2022-08-11T13:53:03.849Z,2.10
2022-08-11T13:55:45.550Z,2.35
2022-08-11T13:58:40.257Z,2.03
2022-08-11T14:02:03.808Z,2.65
2022-08-11T14:04:29.248Z,2.33
2022-08-11T14:06:46.162Z,2.55
2022-08-11T14:09:15.241Z,2.17
2022-08-11T14:12:21.846Z,2.42
2022-08-11T14:14:34.188Z,2.25
2022-08-11T14:17:06.063Z,2.92
2022-08-11T14:19:35.797Z,2.30
2022-08-11T14:22:07.288Z,2.50
2022-08-11T14:24:37.336Z,2.50
2022-08-11T14:27:05.420Z,2.25
2022-08-11T14:29:32.710Z,2.60
2022-08-11T14:32:13.927Z,2.40
2022-08-11T14:34:44.494Z,2.40
2022-08-11T14:37:13.699Z,2.50
2022-08-11T14:39:49.045Z,2.35
2022-08-11T14:42:17.955Z,2.33
2022-08-11T14:44:52.005Z,2.30
2022-08-11T14:47:23.831Z,2.45
2022-08-11T14:49:58.550Z,2.45
2022-08-11T14:52:37.793Z,2.10
2022-08-11T14:55:04.947Z,2.30
2022-08-11T14:57:55.392Z,2.72
2022-08-11T15:00:20.116Z,3.08
2022-08-11T15:02:48.871Z,2.35
2022-08-11T15:05:15.898Z,2.70
2022-08-11T15:07:42.586Z,2.50
2022-08-11T15:10:13.075Z,2.65
2022-08-11T15:12:41.183Z,2.30
2022-08-11T15:15:09.115Z,2.17
2022-08-11T15:17:43.391Z,2.17
2022-08-11T15:20:14.475Z,2.60
2022-08-11T15:22:40.953Z,2.70
2022-08-11T15:25:07.579Z,2.10
2022-08-11T15:27:35.577Z,2.40
2022-08-11T15:30:04.898Z,2.50
2022-08-11T15:32:33.444Z,2.80
2022-08-11T15:35:03.965Z,2.50
2022-08-11T15:37:31.361Z,2.17
2022-08-11T15:40:00.729Z,2.38
2022-08-11T15:42:28.972Z,2.53
2022-08-11T15:45:02.630Z,2.45
2022-08-11T15:47:38.851Z,2.00
2022-08-11T15:50:14.017Z,2.40
2022-08-11T15:52:48.490Z,2.67
2022-08-11T15:55:16.047Z,2.90
2022-08-11T15:57:44.388Z,2.30
2022-08-11T16:00:11.325Z,2.50
2022-08-11T16:02:38.205Z,2.20
2022-08-11T16:05:09.825Z,2.30
2022-08-11T16:07:40.971Z,2.13
2022-08-11T16:10:11.077Z,2.40
2022-08-11T16:12:57.497Z,3.25
2022-08-11T16:15:24.555Z,2.05
2022-08-11T16:17:54.184Z,2.17
2022-08-11T16:20:24.581Z,2.70
2022-08-11T16:22:55.208Z,2.38
2022-08-11T16:27:02.758Z,2.83
2022-08-11T16:28:17.740Z,2.17
2022-08-11T16:30:46.147Z,2.50
2022-08-11T16:33:50.636Z,2.70
2022-08-11T16:36:00.453Z,2.50
2022-08-11T16:38:28.428Z,2.70
2022-08-11T16:40:57.040Z,2.00
2022-08-11T16:43:30.434Z,2.40
2022-08-11T16:45:58.070Z,2.50
2022-08-11T16:48:36.144Z,2.55
2022-08-11T16:51:08.461Z,2.85
2022-08-11T16:54:03.621Z,2.22
2022-08-11T16:56:27.154Z,2.55
2022-08-11T16:58:59.980Z,2.42
2022-08-11T17:01:27.556Z,2.38
2022-08-11T17:04:02.629Z,2.45
2022-08-11T17:06:29.115Z,2.63
2022-08-11T17:08:57.474Z,2.20
2022-08-11T17:11:29.007Z,2.55
2022-08-11T17:14:01.439Z,2.67
2022-08-11T17:16:32.779Z,2.17
2022-08-11T17:19:11.524Z,3.03
2022-08-11T17:21:42.701Z,2.60
2022-08-11T17:24:13.508Z,2.47
2022-08-11T17:26:42.704Z,3.00
2022-08-11T17:29:10.181Z,2.60
2022-08-11T17:31:36.806Z,3.05
2022-08-11T17:34:03.764Z,2.88
2022-08-11T17:36:30.999Z,2.60
2022-08-11T17:38:57.581Z,2.75
2022-08-11T17:41:24.217Z,2.78
2022-08-11T17:43:53.239Z,3.38
2022-08-11T17:46:20.036Z,2.58
2022-08-11T17:48:47.975Z,2.83
2022-08-11T17:51:18.475Z,2.72
2022-08-11T17:54:18.239Z,2.45
2022-08-11T17:56:34.651Z,3.03
2022-08-11T17:59:01.732Z,2.60
2022-08-11T18:01:30.167Z,2.33
2022-08-11T18:03:59.051Z,2.55
2022-08-11T18:06:34.803Z,2.50
2022-08-11T18:09:05.205Z,2.75
2022-08-11T18:12:10.506Z,2.55
2022-08-11T18:14:23.693Z,2.60
2022-08-11T18:16:50.488Z,2.90
2022-08-11T18:19:17.060Z,2.78
2022-08-11T18:21:46.095Z,2.92
2022-08-11T18:24:37.277Z,2.90
2022-08-11T18:27:07.283Z,2.88
2022-08-11T18:29:41.918Z,3.05
2022-08-11T18:32:10.443Z,2.67
2022-08-11T18:34:40.830Z,3.10
2022-08-11T18:37:20.558Z,2.70
2022-08-11T18:39:56.835Z,2.47
2022-08-11T18:42:29.794Z,2.50
2022-08-11T18:45:00.036Z,2.67
2022-08-11T18:47:28.910Z,2.92
2022-08-11T18:50:02.388Z,3.13
2022-08-11T18:52:32.499Z,3.55
2022-08-11T18:55:01.581Z,2.78
2022-08-11T18:57:27.959Z,2.88
2022-08-11T19:00:01.063Z,3.45
2022-08-11T19:02:28.049Z,3.08
2022-08-11T19:04:56.773Z,2.80
2022-08-11T19:07:25.722Z,3.20
2022-08-11T19:09:55.273Z,2.60
2022-08-11T19:12:23.928Z,2.72
2022-08-11T19:14:53.506Z,3.15
2022-08-11T19:17:44.217Z,3.30
2022-08-11T19:20:12.590Z,3.33
2022-08-11T19:22:39.151Z,4.10
2022-08-11T19:25:06.634Z,3.40
2022-08-11T19:27:34.189Z,2.90
2022-08-11T19:30:07.675Z,3.75
2022-08-11T19:32:40.887Z,3.28
2022-08-11T19:35:08.974Z,3.22
2022-08-11T19:37:36.390Z,3.47
2022-08-11T19:40:11.815Z,4.10
2022-08-11T19:42:40.202Z,3.85
2022-08-11T19:45:08.062Z,3.63
2022-08-11T19:47:35.922Z,3.55
2022-08-11T19:50:04.457Z,3.45
2022-08-11T19:52:32.061Z,3.00
2022-08-11T19:54:58.855Z,3.60
2022-08-11T19:57:25.741Z,3.53
2022-08-11T19:59:52.357Z,3.50
2022-08-11T20:02:19.422Z,3.40
2022-08-11T20:04:45.981Z,3.40
2022-08-11T20:07:13.578Z,2.92
2022-08-11T20:10:05.390Z,3.25
2022-08-11T20:12:32.008Z,3.50
2022-08-11T20:14:59.817Z,3.05
2022-08-11T20:17:29.640Z,3.05
2022-08-11T20:22:30.662Z,2.97
2022-08-11T20:24:57.044Z,3.00
2022-08-11T20:27:25.082Z,3.00
2022-08-11T20:29:53.768Z,3.60
2022-08-11T20:32:20.741Z,2.78
2022-08-11T20:34:47.356Z,3.20
2022-08-11T20:37:14.535Z,3.38
2022-08-11T20:39:43.309Z,3.10
2022-08-11T20:42:11.357Z,2.92
2022-08-11T20:44:39.336Z,3.08
2022-08-11T20:47:13.165Z,3.13
2022-08-11T20:49:45.141Z,3.25
2022-08-11T20:52:20.797Z,3.15
2022-08-11T20:54:49.787Z,3.10
2022-08-11T20:57:18.638Z,3.75
2022-08-11T20:59:56.334Z,3.08
2022-08-11T21:02:26.722Z,3.45
2022-08-11T21:04:55.203Z,3.20
2022-08-11T21:07:26.135Z,3.10
2022-08-11T21:10:01.141Z,3.00
2022-08-11T21:12:38.301Z,2.90
2022-08-11T21:15:07.535Z,3.30
2022-08-11T21:17:36.823Z,2.60
2022-08-11T21:20:23.729Z,3.30
2022-08-11T21:22:59.633Z,2.95
2022-08-11T21:25:43.545Z,2.75
2022-08-11T21:28:11.793Z,2.97
2022-08-11T21:30:39.616Z,2.80
2022-08-11T21:33:06.022Z,3.45
2022-08-11T21:35:33.185Z,2.72
2022-08-11T21:38:02.680Z,3.17
2022-08-11T21:40:34.845Z,3.65
2022-08-11T21:43:02.837Z,2.80
2022-08-11T21:45:31.294Z,3.20
2022-08-11T21:48:00.864Z,3.40
2022-08-11T21:50:27.985Z,3.40
2022-08-11T21:52:57.464Z,2.85
2022-08-11T21:55:25.012Z,2.72
2022-08-11T21:57:53.188Z,3.10
2022-08-11T22:00:20.286Z,3.10
2022-08-11T22:02:48.970Z,2.88
2022-08-11T22:05:20.617Z,3.40
2022-08-11T22:07:47.092Z,3.03
2022-08-11T22:10:40.846Z,3.00
2022-08-11T22:13:00.396Z,3.17
2022-08-11T22:15:26.811Z,2.90
2022-08-11T22:17:57.779Z,3.15
2022-08-11T22:20:26.601Z,2.88
2022-08-11T22:22:54.725Z,2.78
2022-08-11T22:25:25.882Z,3.25
2022-08-11T22:28:05.073Z,2.70
2022-08-11T22:30:31.989Z,2.78
2022-08-11T22:33:00.919Z,2.63
2022-08-11T22:35:29.616Z,2.78
2022-08-11T22:37:58.699Z,2.60
2022-08-11T22:40:25.061Z,3.05
2022-08-11T22:42:51.398Z,2.83
2022-08-11T22:45:18.485Z,2.75
2022-08-11T22:47:48.088Z,2.92
2022-08-11T22:50:14.912Z,2.63
2022-08-11T22:52:42.866Z,2.78
2022-08-11T22:55:10.179Z,2.80
2022-08-11T22:57:38.994Z,2.83
2022-08-11T23:00:06.762Z,2.88
2022-08-11T23:02:33.630Z,3.13
2022-08-11T23:05:00.352Z,3.08
2022-08-11T23:07:49.401Z,3.03
2022-08-11T23:10:13.928Z,2.80
2022-08-11T23:12:47.532Z,3.00
2022-08-11T23:15:14.352Z,2.60
2022-08-11T23:17:41.215Z,2.95
2022-08-11T23:20:35.161Z,2.70
2022-08-11T23:22:56.414Z,2.80
2022-08-11T23:25:23.321Z,2.75
2022-08-11T23:27:49.789Z,2.72
2022-08-11T23:30:17.237Z,2.83
2022-08-11T23:32:48.198Z,3.10
2022-08-11T23:35:37.829Z,2.92
2022-08-11T23:38:01.703Z,2.97
2022-08-11T23:40:28.013Z,2.95
2022-08-11T23:42:55.279Z,3.13
2022-08-11T23:45:24.288Z,2.70
2022-08-11T23:47:51.366Z,3.08
2022-08-11T23:50:19.004Z,2.95
2022-08-11T23:52:45.671Z,3.03
2022-08-11T23:55:12.183Z,3.47
2022-08-11T23:57:47.517Z,3.00
